Time;durP1;ratioP1;P1;durP2;ratioP2;P2;SDS_P1;SDS_P2;PMS_P1;PMS_P2;Temp;Humidity;BMP_temperature;BMP_pressure;BME280_temperature;BME280_humidity;BME280_pressure;Samples;Min_cycle;Max_cycle;Signal;HPM_P1;HPM_P2
2022/04/22 00:02:19;;;;;;;4.28;1.90;;;8.90;97.50;;;;;;4960605;29;20034;-83
2022/04/22 00:04:44;;;;;;;4.35;1.70;;;8.90;97.60;;;;;;4963590;29;20038;-84
2022/04/22 00:07:10;;;;;;;4.20;1.73;;;8.90;97.60;;;;;;4962717;29;20038;-85
2022/04/22 00:09:36;;;;;;;3.92;1.55;;;8.90;97.70;;;;;;4963175;29;20045;-85
2022/04/22 00:12:01;;;;;;;3.17;1.30;;;8.90;97.80;;;;;;4961930;29;20037;-84
2022/04/22 00:14:27;;;;;;;3.25;1.40;;;8.80;97.80;;;;;;4962554;29;20050;-84
2022/04/22 00:16:52;;;;;;;4.75;1.63;;;8.80;98.10;;;;;;4961961;29;20095;-85
2022/04/22 00:19:18;;;;;;;4.15;1.67;;;8.80;98.10;;;;;;4961516;29;20035;-83
2022/04/22 00:21:44;;;;;;;3.45;1.48;;;8.80;98.20;;;;;;4961802;29;20059;-85
2022/04/22 00:24:10;;;;;;;3.30;1.35;;;8.70;98.20;;;;;;4961807;29;20038;-85
2022/04/22 00:26:36;;;;;;;4.03;1.63;;;8.80;98.30;;;;;;4943740;29;20023;-83
2022/04/22 00:29:01;;;;;;;4.05;1.58;;;8.70;98.40;;;;;;4942842;29;20043;-84
2022/04/22 00:31:27;;;;;;;3.50;1.42;;;8.70;98.60;;;;;;4959327;29;20038;-85
2022/04/22 00:33:52;;;;;;;3.28;1.45;;;8.70;98.60;;;;;;4959351;29;20041;-86
2022/04/22 00:36:18;;;;;;;4.60;1.55;;;8.70;98.80;;;;;;4959502;29;20031;-85
2022/04/22 00:38:43;;;;;;;4.15;1.63;;;8.60;99.00;;;;;;4944624;29;20044;-85
2022/04/22 00:41:09;;;;;;;3.42;1.42;;;8.60;99.10;;;;;;4954989;29;20027;-86
2022/04/22 00:43:44;;;;;;;3.40;1.65;;;8.50;99.30;;;;;;4942581;29;20054;-85
2022/04/22 00:46:10;;;;;;;5.03;1.95;;;8.50;99.40;;;;;;4958184;29;20117;-82
2022/04/22 00:48:36;;;;;;;5.68;1.77;;;8.50;99.60;;;;;;4954061;29;20035;-85
2022/04/22 00:51:04;;;;;;;4.43;1.55;;;8.40;99.70;;;;;;4936437;29;20454;-84
2022/04/22 00:53:31;;;;;;;3.72;1.40;;;8.40;99.80;;;;;;4939733;29;20028;-83
2022/04/22 00:55:58;;;;;;;5.10;1.65;;;8.40;99.90;;;;;;4937682;29;20079;-84
2022/04/22 00:58:24;;;;;;;3.90;1.67;;;8.50;99.80;;;;;;4939297;29;20051;-85
2022/04/22 01:00:49;;;;;;;3.33;1.60;;;8.60;99.90;;;;;;4949911;29;20059;-85
2022/04/22 01:03:15;;;;;;;3.83;1.80;;;8.40;99.90;;;;;;4939726;29;20087;-84
2022/04/22 01:11:09;;;;;;;4.38;1.92;;;8.30;99.90;;;;;;4956806;28;20117;-85
2022/04/22 01:13:35;;;;;;;5.10;2.20;;;8.30;99.90;;;;;;4955910;29;20033;-85
2022/04/22 01:16:01;;;;;;;6.13;2.08;;;8.30;99.90;;;;;;4956749;29;20051;-85
2022/04/22 01:18:27;;;;;;;4.00;2.08;;;8.20;99.90;;;;;;4940109;29;20035;-84
2022/04/22 01:20:52;;;;;;;5.72;2.03;;;8.30;99.90;;;;;;4957237;29;20040;-84
2022/04/22 01:23:18;;;;;;;5.65;2.00;;;8.30;99.90;;;;;;4957092;29;20039;-85
2022/04/22 01:25:43;;;;;;;4.55;2.13;;;8.20;99.90;;;;;;4954331;29;20035;-84
2022/04/22 01:28:10;;;;;;;3.58;1.45;;;8.30;99.90;;;;;;4956258;29;20049;-82
2022/04/22 01:30:36;;;;;;;4.90;2.20;;;8.10;99.90;;;;;;4957233;29;20027;-82
2022/04/22 01:33:02;;;;;;;4.72;2.13;;;8.10;99.90;;;;;;4956427;29;20133;-82
2022/04/22 01:35:28;;;;;;;4.93;2.33;;;8.00;99.90;;;;;;4956595;29;20039;-83
2022/04/22 01:37:53;;;;;;;5.38;2.65;;;8.00;99.90;;;;;;4938647;29;20397;-83
2022/04/22 01:40:19;;;;;;;5.07;2.35;;;8.00;99.90;;;;;;4956851;29;20494;-83
2022/04/22 01:42:44;;;;;;;5.88;2.15;;;8.00;99.90;;;;;;4939407;29;20050;-84
2022/04/22 01:45:14;;;;;;;4.45;2.55;;;8.00;99.90;;;;;;4938292;29;20040;-84
2022/04/22 01:47:40;;;;;;;4.38;2.13;;;8.00;99.90;;;;;;4937414;29;20044;-84
2022/04/22 01:50:07;;;;;;;6.40;2.10;;;8.00;99.90;;;;;;4937359;29;20194;-85
2022/04/22 01:52:33;;;;;;;5.13;2.40;;;8.00;99.90;;;;;;4945717;29;20075;-83
2022/04/22 01:54:59;;;;;;;4.78;2.05;;;7.90;99.90;;;;;;4943851;29;20036;-85
2022/04/22 01:57:24;;;;;;;5.85;2.70;;;7.90;99.90;;;;;;4944033;29;20096;-84
2022/04/22 01:59:50;;;;;;;5.50;2.50;;;7.90;99.90;;;;;;4952679;29;20509;-82
2022/04/22 02:02:16;;;;;;;4.72;2.10;;;7.80;99.90;;;;;;4956991;29;20113;-84
2022/04/22 02:04:42;;;;;;;6.15;2.55;;;7.80;99.90;;;;;;4953867;29;20093;-85
2022/04/22 02:07:09;;;;;;;5.28;2.70;;;7.80;99.90;;;;;;4955244;29;20486;-86
2022/04/22 02:09:34;;;;;;;7.07;2.58;;;7.80;99.90;;;;;;4955684;29;20031;-85
2022/04/22 02:12:00;;;;;;;5.97;2.92;;;7.80;99.90;;;;;;4955534;29;20038;-85
2022/04/22 02:14:26;;;;;;;5.18;2.58;;;7.80;99.90;;;;;;4955864;29;20498;-84
2022/04/22 02:16:52;;;;;;;6.57;2.85;;;7.80;99.90;;;;;;4948492;29;20035;-85
2022/04/22 02:19:18;;;;;;;6.22;2.67;;;7.80;99.90;;;;;;4935296;29;20406;-84
2022/04/22 02:21:44;;;;;;;5.43;2.50;;;7.80;99.90;;;;;;4934561;29;20027;-85
2022/04/22 02:24:10;;;;;;;5.53;2.40;;;7.80;99.90;;;;;;4934045;29;20030;-85
2022/04/22 02:29:20;;;;;;;6.35;3.03;;;7.80;99.90;;;;;;4952613;29;20489;-85
2022/04/22 02:31:46;;;;;;;5.45;2.45;;;7.60;99.90;;;;;;4952330;29;20109;-85
2022/04/22 02:34:12;;;;;;;5.45;2.05;;;7.60;99.90;;;;;;4951811;29;20039;-85
2022/04/22 02:36:39;;;;;;;5.57;3.00;;;7.60;99.90;;;;;;4952148;29;20037;-85
2022/04/22 02:39:05;;;;;;;5.68;2.30;;;7.50;99.90;;;;;;4952604;29;20050;-85
2022/04/22 02:46:59;;;;;;;7.43;2.88;;;7.50;99.90;;;;;;4952497;29;20046;-83
2022/04/22 02:49:24;;;;;;;8.32;2.95;;;7.40;99.90;;;;;;4949334;29;20031;-81
2022/04/22 02:51:51;;;;;;;5.57;2.65;;;7.40;99.90;;;;;;4949283;29;20457;-83
2022/04/22 02:54:17;;;;;;;6.78;3.40;;;7.40;99.90;;;;;;4962449;23;20134;-89
2022/04/22 02:56:43;;;;;;;7.30;3.13;;;7.40;99.90;;;;;;4918926;29;20055;-89
2022/04/22 02:59:09;;;;;;;8.60;3.10;;;7.40;99.90;;;;;;4932835;29;20027;-89
2022/04/22 03:01:34;;;;;;;7.28;3.08;;;7.40;99.90;;;;;;4941830;29;20043;-89
2022/04/22 03:04:00;;;;;;;7.50;3.60;;;7.30;99.90;;;;;;4907821;29;20021;-89
2022/04/22 03:06:26;;;;;;;9.13;3.17;;;7.30;99.90;;;;;;4912473;29;20035;-88
2022/04/22 03:08:54;;;;;;;7.13;3.10;;;7.30;99.90;;;;;;4905335;29;20303;-88
2022/04/22 03:11:23;;;;;;;7.72;3.63;;;7.20;99.90;;;;;;4929696;29;20032;-88
2022/04/22 03:13:52;;;;;;;8.35;3.38;;;7.30;99.90;;;;;;4907829;29;20036;-87
2022/04/22 03:16:24;;;;;;;8.93;3.38;;;7.30;99.90;;;;;;4941168;29;20042;-87
2022/04/22 03:18:50;;;;;;;6.45;2.90;;;7.30;99.90;;;;;;4940426;29;20463;-88
2022/04/22 03:21:16;;;;;;;8.18;3.63;;;7.30;99.90;;;;;;4919782;29;20051;-88
2022/04/22 03:23:42;;;;;;;7.70;3.30;;;7.30;99.90;;;;;;4936319;29;20102;-88
2022/04/22 03:26:08;;;;;;;8.88;3.28;;;7.30;99.90;;;;;;4930264;29;20032;-88
2022/04/22 03:28:34;;;;;;;8.27;3.80;;;7.30;99.90;;;;;;4916012;29;20029;-89
2022/04/22 03:31:00;;;;;;;6.10;2.83;;;7.30;99.90;;;;;;4901132;29;20463;-88
2022/04/22 03:33:25;;;;;;;7.00;3.40;;;7.30;99.90;;;;;;4915979;29;20067;-88
2022/04/22 03:35:51;;;;;;;7.40;3.28;;;7.30;99.90;;;;;;4942889;29;20037;-89
2022/04/22 03:38:22;;;;;;;7.18;3.17;;;7.20;99.90;;;;;;4915426;29;20032;-87
2022/04/22 03:40:48;;;;;;;8.75;3.42;;;7.20;99.90;;;;;;4927091;29;20490;-88
2022/04/22 03:43:15;;;;;;;8.00;4.13;;;7.20;99.90;;;;;;4914814;29;20106;-88
2022/04/22 03:45:41;;;;;;;7.57;3.30;;;7.10;99.90;;;;;;4911091;29;20060;-89
2022/04/22 03:48:11;;;;;;;7.40;3.25;;;7.10;99.90;;;;;;4925282;29;20070;-88
2022/04/22 03:50:37;;;;;;;7.30;3.33;;;7.10;99.90;;;;;;4940321;29;20039;-88
2022/04/22 03:53:06;;;;;;;8.48;3.65;;;7.10;99.90;;;;;;4926636;29;20032;-88
2022/04/22 03:55:35;;;;;;;6.88;3.08;;;7.00;99.90;;;;;;4930328;29;20031;-89
2022/04/22 03:58:10;;;;;;;7.95;3.72;;;7.00;99.90;;;;;;4949646;29;20067;-89
2022/04/22 04:00:46;;;;;;;9.85;4.20;;;6.90;99.90;;;;;;4946145;29;20463;-88
2022/04/22 04:03:16;;;;;;;7.68;4.10;;;6.80;99.90;;;;;;4921887;29;20031;-89
2022/04/22 04:05:47;;;;;;;7.50;3.35;;;6.80;99.90;;;;;;4943262;29;20028;-89
2022/04/22 04:08:17;;;;;;;7.70;3.60;;;6.80;99.90;;;;;;4931219;29;20047;-89
2022/04/22 04:16:40;;;;;;;8.55;3.63;;;6.70;99.90;;;;;;4937977;29;20092;-88
2022/04/22 04:24:36;;;;;;;7.53;3.67;;;6.70;99.90;;;;;;4941193;29;20442;-88
2022/04/22 04:27:07;;;;;;;6.30;3.17;;;6.60;99.90;;;;;;4908430;29;20024;-89
2022/04/22 04:29:36;;;;;;;8.52;4.00;;;6.70;99.90;;;;;;4920260;29;20028;-89
2022/04/22 04:32:02;;;;;;;11.25;4.57;;;6.60;99.90;;;;;;4928812;29;20487;-89
2022/04/22 04:34:31;;;;;;;9.85;4.80;;;6.70;99.90;;;;;;4947396;29;20030;-88
2022/04/22 04:36:56;;;;;;;9.50;4.68;;;6.70;99.90;;;;;;4950382;29;20032;-89
2022/04/22 04:39:22;;;;;;;8.50;3.70;;;6.70;99.90;;;;;;4944571;29;20027;-89
2022/04/22 04:41:47;;;;;;;9.73;4.40;;;6.80;99.90;;;;;;4941519;29;20028;-90
2022/04/22 04:44:13;;;;;;;11.07;4.18;;;6.80;99.90;;;;;;4907010;29;20024;-90
2022/04/22 04:46:45;;;;;;;11.07;4.43;;;6.70;99.90;;;;;;4940332;29;20060;-89
2022/04/22 04:49:23;;;;;;;6.95;4.28;;;6.90;99.90;;;;;;4935317;29;20032;-89
2022/04/22 04:51:51;;;;;;;7.85;3.78;;;6.80;99.90;;;;;;4953106;29;20499;-89
2022/04/22 04:54:29;;;;;;;8.45;4.63;;;6.90;99.90;;;;;;4933017;29;20043;-88
2022/04/22 04:57:02;;;;;;;11.63;4.82;;;6.90;99.90;;;;;;4927778;29;20035;-89
2022/04/22 05:00:14;;;;;;;9.93;4.47;;;6.90;99.90;;;;;;4927168;29;20035;-88
2022/04/22 05:02:35;;;;;;;10.27;4.75;;;7.00;99.90;;;;;;4938549;29;20042;-88
2022/04/22 05:05:07;;;;;;;11.55;4.85;;;7.00;99.90;;;;;;4947883;29;20410;-88
2022/04/22 05:07:50;;;;;;;11.98;4.93;;;7.10;99.90;;;;;;4944295;29;20043;-88
2022/04/22 05:10:20;;;;;;;9.60;4.07;;;7.10;99.90;;;;;;4931157;29;20467;-89
2022/04/22 05:12:46;;;;;;;8.93;4.28;;;7.20;99.90;;;;;;4938891;29;20095;-88
2022/04/22 05:15:12;;;;;;;9.43;4.45;;;7.20;99.90;;;;;;4923974;29;20035;-89
2022/04/22 05:17:41;;;;;;;8.43;4.30;;;7.20;99.90;;;;;;4926175;29;20260;-88
2022/04/22 05:20:14;;;;;;;10.00;5.00;;;7.30;99.90;;;;;;4945826;29;20039;-89
2022/04/22 05:22:41;;;;;;;11.32;5.10;;;7.40;99.90;;;;;;4930958;29;20063;-89
2022/04/22 05:25:10;;;;;;;11.82;5.38;;;7.30;99.90;;;;;;4945278;29;20103;-89
2022/04/22 05:27:36;;;;;;;11.73;5.00;;;7.40;99.90;;;;;;4920772;29;20036;-88
2022/04/22 05:33:03;;;;;;;;;;;;;;;;;;;;;
2022/04/22 05:35:42;;;;;;;;;;;;;;;;;;;;;
2022/04/22 05:38:34;;;;;;;12.13;5.43;;;7.60;99.90;;;;;;4940245;29;20102;-89
2022/04/22 05:42:01;;;;;;;12.13;4.75;;;7.60;99.90;;;;;;4908814;29;20054;-89
2022/04/22 05:44:55;;;;;;;10.63;4.53;;;7.70;99.90;;;;;;4856275;29;20064;-89
2022/04/22 05:51:04;;;;;;;12.52;5.00;;;7.80;99.90;;;;;;4842069;29;20045;-89
2022/04/22 05:53:30;;;;;;;12.27;5.22;;;7.80;99.90;;;;;;4928236;29;20039;-89
2022/04/22 05:55:57;;;;;;;10.43;5.00;;;7.80;99.90;;;;;;4919693;29;20504;-89
2022/04/22 05:58:25;;;;;;;11.00;5.15;;;7.80;99.90;;;;;;4938509;29;20665;-89
2022/04/22 06:00:51;;;;;;;10.93;5.88;;;7.90;99.90;;;;;;4923471;29;20426;-88
2022/04/22 06:03:17;;;;;;;9.55;4.78;;;7.90;99.90;;;;;;4924806;29;20026;-89
2022/04/22 06:05:42;;;;;;;9.65;4.80;;;7.90;99.90;;;;;;4914249;29;20096;-90
2022/04/22 06:10:54;;;;;;;10.88;5.15;;;8.20;99.90;;;;;;4934244;29;20078;-89
2022/04/22 06:13:20;;;;;;;10.32;5.00;;;8.30;99.90;;;;;;4917842;29;20043;-89
2022/04/22 06:15:49;;;;;;;12.88;5.70;;;8.20;99.90;;;;;;4935553;29;20032;-89
2022/04/22 06:18:15;;;;;;;10.45;5.55;;;8.50;99.90;;;;;;4930975;29;20036;-89
2022/04/22 06:20:43;;;;;;;11.40;5.15;;;8.40;99.90;;;;;;4899022;29;20056;-89
2022/04/22 06:23:09;;;;;;;11.43;5.43;;;8.40;99.90;;;;;;4924536;29;20024;-89
2022/04/22 06:25:35;;;;;;;11.25;5.32;;;8.60;99.90;;;;;;4908390;29;20035;-89
2022/04/22 06:28:06;;;;;;;13.48;5.95;;;8.60;99.90;;;;;;4936734;29;20055;-90
2022/04/22 06:30:35;;;;;;;11.65;5.55;;;8.70;99.90;;;;;;4925095;29;20055;-89
2022/04/22 06:33:06;;;;;;;11.27;5.55;;;8.70;99.90;;;;;;4925479;29;20040;-88
2022/04/22 06:36:18;;;;;;;12.13;5.80;;;8.80;99.90;;;;;;4944313;29;20046;-89
2022/04/22 06:38:58;;;;;;;9.18;5.15;;;9.00;99.90;;;;;;4925458;29;20410;-90
2022/04/22 06:46:56;;;;;;;10.70;4.93;;;8.90;99.90;;;;;;4941585;29;20027;-89
2022/04/22 06:49:23;;;;;;;10.40;5.88;;;9.20;99.90;;;;;;4935966;29;20035;-89
2022/04/22 06:51:50;;;;;;;11.27;5.57;;;9.10;99.90;;;;;;4921512;29;20055;-89
2022/04/22 06:54:16;;;;;;;12.25;5.38;;;9.20;99.90;;;;;;4924291;29;20466;-89
2022/04/22 06:56:55;;;;;;;;;;;;;;;;;;;;;
2022/04/22 06:59:31;;;;;;;11.57;6.07;;;9.20;99.90;;;;;;4940674;29;20095;-89
2022/04/22 07:02:20;;;;;;;15.27;6.32;;;9.20;99.90;;;;;;4944130;29;20028;-89
2022/04/22 07:04:50;;;;;;;10.68;5.68;;;9.30;99.90;;;;;;4936235;29;20087;-89
2022/04/22 07:07:16;;;;;;;13.82;5.90;;;9.40;99.90;;;;;;4918013;29;20036;-88
2022/04/22 07:09:42;;;;;;;12.75;5.45;;;9.60;99.90;;;;;;4924995;29;20095;-89
2022/04/22 07:12:15;;;;;;;12.07;5.47;;;9.60;99.90;;;;;;4919278;29;20124;-88
2022/04/22 07:14:47;;;;;;;12.25;5.85;;;9.60;99.90;;;;;;4920129;29;20056;-89
2022/04/22 07:17:18;;;;;;;13.57;5.57;;;9.70;99.90;;;;;;4909987;29;20032;-89
2022/04/22 07:19:51;;;;;;;9.60;5.03;;;9.70;99.90;;;;;;4911152;29;20036;-88
2022/04/22 07:22:35;;;;;;;;;;;9.70;99.90;;;;;;4939085;29;20031;-89
2022/04/22 07:50:05;;;;;;;;;;;;;;;;;;;;;
2022/04/22 08:54:14;;;;;;;11.25;5.43;;;12.90;99.20;;;;;;5221503;23;20066;-89
2022/04/22 08:56:40;;;;;;;9.77;5.57;;;13.00;99.10;;;;;;4928483;29;20461;-89
2022/04/22 08:59:09;;;;;;;11.95;6.05;;;13.10;99.10;;;;;;4919646;29;20046;-89
2022/04/22 09:01:37;;;;;;;12.45;6.00;;;13.20;99.00;;;;;;4938058;29;20083;-88
2022/04/22 09:04:04;;;;;;;12.15;5.95;;;13.40;98.70;;;;;;4927162;29;20032;-89
2022/04/22 09:06:30;;;;;;;10.65;5.97;;;13.60;98.30;;;;;;4925844;29;20031;-88
2022/04/22 09:08:58;;;;;;;9.18;4.72;;;13.50;97.60;;;;;;4918833;29;20024;-89
2022/04/22 09:11:24;;;;;;;10.80;6.05;;;13.70;97.50;;;;;;4938144;28;20090;-88
2022/04/22 09:13:50;;;;;;;11.48;5.72;;;13.80;97.80;;;;;;4933789;29;20023;-89
2022/04/22 09:16:22;;;;;;;10.93;5.20;;;13.70;97.70;;;;;;4924786;29;20384;-89
2022/04/22 09:18:57;;;;;;;8.63;4.45;;;13.70;98.40;;;;;;4924708;29;20355;-89
2022/04/22 09:21:24;;;;;;;10.70;5.45;;;13.70;97.60;;;;;;4930027;29;20035;-88
2022/04/22 09:23:50;;;;;;;10.07;5.50;;;13.80;97.30;;;;;;4951973;28;20045;-88
2022/04/22 09:26:34;;;;;;;10.75;5.25;;;13.70;97.70;;;;;;4946220;29;20027;-89
2022/04/22 09:29:10;;;;;;;10.30;5.60;;;13.80;97.30;;;;;;4938470;28;20035;-87
2022/04/22 09:31:49;;;;;;;10.18;5.22;;;13.90;97.30;;;;;;4954137;28;20027;-87
2022/04/22 09:34:31;;;;;;;10.80;5.72;;;14.10;97.40;;;;;;4937244;29;20039;-88
2022/04/22 09:42:52;;;;;;;10.13;5.03;;;14.20;96.80;;;;;;4952377;28;20095;-89
2022/04/22 09:45:18;;;;;;;9.70;5.72;;;14.50;96.70;;;;;;4939755;29;20055;-89
2022/04/22 09:47:59;;;;;;;9.70;5.45;;;14.70;96.20;;;;;;4957800;29;20035;-89
2022/04/22 09:50:41;;;;;;;10.77;5.07;;;14.90;96.10;;;;;;4933254;29;20035;-89
2022/04/22 09:53:08;;;;;;;9.43;5.22;;;15.10;95.50;;;;;;4921045;29;20042;-90
2022/04/22 09:56:07;;;;;;;9.65;4.53;;;15.10;95.40;;;;;;4955042;29;20031;-90
2022/04/22 09:58:33;;;;;;;9.23;4.85;;;15.30;95.20;;;;;;4916893;29;20174;-89
2022/04/22 10:01:01;;;;;;;10.65;5.38;;;15.40;95.30;;;;;;4937455;29;20098;-89
2022/04/22 10:03:29;;;;;;;9.57;5.28;;;15.50;94.80;;;;;;4931491;28;20034;-90
2022/04/22 10:05:55;;;;;;;9.55;5.47;;;15.40;94.80;;;;;;4936904;29;20019;-88
2022/04/22 10:08:22;;;;;;;10.18;5.25;;;15.30;94.50;;;;;;4939813;29;20362;-89
2022/04/22 10:10:50;;;;;;;10.32;4.82;;;15.00;94.50;;;;;;4937003;29;20122;-90
2022/04/22 10:13:21;;;;;;;10.23;5.65;;;15.70;95.10;;;;;;4934670;28;20031;-89
2022/04/22 10:15:48;;;;;;;9.82;4.97;;;15.60;94.20;;;;;;4934064;29;20063;-89
2022/04/22 10:18:15;;;;;;;9.32;5.07;;;15.90;94.20;;;;;;4916934;29;20027;-90
2022/04/22 10:20:43;;;;;;;8.00;4.90;;;15.80;93.70;;;;;;4919972;29;20063;-89
2022/04/22 10:23:09;;;;;;;8.95;4.95;;;15.80;93.90;;;;;;4921430;28;20031;-89
2022/04/22 10:25:35;;;;;;;9.13;5.07;;;15.70;94.00;;;;;;4936123;29;20032;-90
2022/04/22 10:28:05;;;;;;;7.97;4.65;;;16.00;93.90;;;;;;4953053;29;20038;-90
2022/04/22 10:30:31;;;;;;;9.38;4.85;;;16.00;93.80;;;;;;4937955;29;20090;-89
2022/04/22 10:32:58;;;;;;;9.07;4.45;;;16.30;93.00;;;;;;4938017;29;20477;-89
2022/04/22 10:35:24;;;;;;;9.23;5.22;;;16.30;93.30;;;;;;4936854;29;20027;-89
2022/04/22 10:37:52;;;;;;;7.57;4.38;;;16.30;93.00;;;;;;4926273;29;20076;-89
2022/04/22 10:40:22;;;;;;;8.05;4.53;;;16.60;92.70;;;;;;4916998;29;20518;-89
2022/04/22 10:42:50;;;;;;;7.68;4.28;;;16.80;92.90;;;;;;4928388;28;20035;-90
2022/04/22 10:48:27;;;;;;;9.23;4.63;;;16.70;92.10;;;;;;4957736;29;20039;-91
2022/04/22 10:51:02;;;;;;;7.35;4.00;;;16.80;92.50;;;;;;4939938;29;20031;-90
2022/04/22 10:53:35;;;;;;;8.27;4.60;;;17.00;91.80;;;;;;4957268;29;20504;-89
2022/04/22 10:56:27;;;;;;;7.95;4.90;;;17.00;91.60;;;;;;4938892;29;20031;-90
2022/04/22 10:59:20;;;;;;;8.02;4.65;;;17.00;91.80;;;;;;4934163;29;20413;-89
2022/04/22 11:01:51;;;;;;;9.20;4.80;;;17.20;91.40;;;;;;4956972;29;20186;-90
2022/04/22 11:04:26;;;;;;;9.63;4.78;;;17.40;91.20;;;;;;4939740;29;20122;-89
2022/04/22 11:06:52;;;;;;;8.88;4.60;;;17.00;91.40;;;;;;4938457;29;20632;-90
2022/04/22 11:09:29;;;;;;;7.50;4.07;;;17.30;91.30;;;;;;4957550;29;20170;-89
2022/04/22 11:11:57;;;;;;;8.55;4.40;;;17.50;90.90;;;;;;4939713;29;20023;-89
2022/04/22 11:14:25;;;;;;;7.95;4.20;;;17.60;90.90;;;;;;4935806;29;20038;-89
2022/04/22 11:16:52;;;;;;;7.10;4.25;;;17.80;91.00;;;;;;4947921;28;20034;-90
2022/04/22 11:19:17;;;;;;;7.85;4.15;;;17.60;90.20;;;;;;4958821;28;20438;-90
2022/04/22 11:21:45;;;;;;;8.60;4.53;;;17.50;90.40;;;;;;4939477;29;20071;-90
2022/04/22 11:24:21;;;;;;;7.70;4.07;;;17.60;90.10;;;;;;4928014;29;20042;-90
2022/04/22 11:26:47;;;;;;;8.63;5.40;;;17.70;90.00;;;;;;4956430;29;20718;-91
2022/04/22 11:29:17;;;;;;;7.05;4.18;;;18.10;90.40;;;;;;4937552;29;20028;-88
2022/04/22 11:32:01;;;;;;;8.05;4.35;;;18.00;89.40;;;;;;4956509;29;20038;-90
2022/04/22 11:34:53;;;;;;;10.20;4.32;;;18.10;89.70;;;;;;4957475;29;20031;-91
2022/04/22 11:37:20;;;;;;;;;;;18.30;88.30;;;;;;4933466;29;20515;-91
2022/04/22 11:39:47;;;;;;;6.78;4.20;;;18.50;87.90;;;;;;4923715;29;20301;-88
2022/04/22 11:42:15;;;;;;;7.45;4.35;;;18.70;88.50;;;;;;4960625;28;20019;-92
2022/04/22 11:44:41;;;;;;;7.35;4.30;;;19.10;86.90;;;;;;4957919;28;20027;-89
2022/04/22 11:47:07;;;;;;;8.50;4.25;;;18.50;86.50;;;;;;4963751;28;20030;-90
2022/04/22 11:49:32;;;;;;;8.20;4.60;;;18.50;86.80;;;;;;4956629;29;20023;-90
2022/04/22 11:52:00;;;;;;;7.68;4.07;;;18.70;86.40;;;;;;4932323;29;20035;-89
2022/04/22 11:54:26;;;;;;;6.78;3.65;;;18.60;86.20;;;;;;4932533;29;20035;-89
2022/04/22 11:56:55;;;;;;;7.68;4.32;;;18.60;86.70;;;;;;4956684;28;20034;-88
2022/04/22 11:59:24;;;;;;;7.22;4.18;;;18.90;85.50;;;;;;4943209;29;20032;-88
2022/04/22 12:10:11;;;;;;;7.60;4.30;;;19.90;83.40;;;;;;4975857;28;20110;-90
2022/04/22 12:12:47;;;;;;;6.05;3.85;;;20.20;83.10;;;;;;4937065;28;20027;-90
2022/04/22 12:15:18;;;;;;;6.68;3.88;;;20.20;81.90;;;;;;4938486;29;20415;-89
2022/04/22 12:17:45;;;;;;;8.73;4.60;;;20.10;81.80;;;;;;4936082;29;20548;-90
2022/04/22 12:20:12;;;;;;;7.45;3.85;;;20.10;81.20;;;;;;4951648;29;20251;-89
2022/04/22 12:22:38;;;;;;;7.15;4.70;;;20.10;81.20;;;;;;4921200;29;20040;-89
2022/04/22 12:25:19;;;;;;;9.07;4.55;;;20.30;81.00;;;;;;4928165;29;20133;-90
2022/04/22 12:28:13;;;;;;;9.45;4.25;;;20.50;79.40;;;;;;4941084;29;20478;-90
2022/04/22 12:30:40;;;;;;;6.28;3.83;;;20.70;80.20;;;;;;4956708;29;20027;-90
2022/04/22 12:33:15;;;;;;;7.05;3.67;;;20.80;79.00;;;;;;4954592;29;20027;-89
2022/04/22 12:35:42;;;;;;;6.53;3.38;;;20.80;79.40;;;;;;4937785;29;20405;-89
2022/04/22 12:38:13;;;;;;;7.72;4.13;;;20.70;78.90;;;;;;4954899;29;20028;-91
2022/04/22 12:40:49;;;;;;;8.50;4.55;;;20.90;78.00;;;;;;4955141;29;20458;-90
2022/04/22 12:43:31;;;;;;;6.45;3.95;;;20.20;78.80;;;;;;4937451;29;20094;-90
2022/04/22 12:52:12;;;;;;;6.47;3.42;;;20.40;78.10;;;;;;4954640;29;20100;-89
2022/04/22 12:54:39;;;;;;;5.72;3.47;;;20.90;77.90;;;;;;4937021;29;20031;-90
2022/04/22 12:57:08;;;;;;;6.45;3.00;;;21.00;76.20;;;;;;4936912;29;20046;-90
2022/04/22 12:59:43;;;;;;;5.78;3.03;;;21.10;76.40;;;;;;4936276;29;20028;-89
2022/04/22 13:02:10;;;;;;;6.93;3.17;;;21.10;74.90;;;;;;4936738;29;20051;-90
2022/04/22 13:04:50;;;;;;;4.95;2.88;;;21.40;75.20;;;;;;4953836;29;20027;-89
2022/04/22 13:07:15;;;;;;;6.30;3.50;;;21.60;74.90;;;;;;4949331;28;20020;-90
2022/04/22 13:09:41;;;;;;;5.85;2.75;;;21.50;73.30;;;;;;4934766;29;20099;-90
2022/04/22 13:12:07;;;;;;;5.82;3.45;;;21.40;74.60;;;;;;4917837;29;20028;-90
2022/04/22 13:14:33;;;;;;;5.15;3.25;;;21.30;73.50;;;;;;4934849;29;20151;-89
2022/04/22 13:17:00;;;;;;;8.23;3.60;;;21.50;74.10;;;;;;4932717;28;20049;-89
2022/04/22 13:19:25;;;;;;;5.55;3.00;;;21.30;74.90;;;;;;4933072;29;20120;-91
2022/04/22 13:21:51;;;;;;;5.38;2.85;;;21.70;73.70;;;;;;4933186;29;20047;-89
2022/04/22 13:24:17;;;;;;;4.60;2.65;;;22.30;71.50;;;;;;4935034;29;20019;-89
2022/04/22 13:26:43;;;;;;;4.47;2.50;;;22.30;70.90;;;;;;4923072;29;20027;-91
2022/04/22 13:29:08;;;;;;;4.82;2.50;;;22.80;71.40;;;;;;4937493;29;20125;-90
2022/04/22 13:31:35;;;;;;;5.80;3.17;;;22.80;68.90;;;;;;4936989;29;20478;-90
2022/04/22 13:34:03;;;;;;;4.85;2.75;;;23.20;69.20;;;;;;4940047;28;20038;-91
2022/04/22 13:36:30;;;;;;;6.32;3.00;;;23.00;68.50;;;;;;4917149;29;20081;-91
2022/04/22 13:38:55;;;;;;;4.20;2.60;;;22.60;69.30;;;;;;4934267;29;20019;-90
2022/04/22 13:41:21;;;;;;;5.18;3.30;;;22.50;69.60;;;;;;4917234;29;20030;-89
2022/04/22 13:43:49;;;;;;;5.32;2.90;;;22.10;69.00;;;;;;4933383;28;20030;-89
2022/04/22 13:54:28;;;;;;;4.55;2.45;;;22.20;69.10;;;;;;4944628;29;20098;-90
2022/04/22 13:56:53;;;;;;;4.75;2.58;;;22.70;68.80;;;;;;4952651;29;20121;-89
2022/04/22 13:59:19;;;;;;;4.47;2.65;;;22.90;67.40;;;;;;4953432;29;20035;-90
2022/04/22 14:01:45;;;;;;;5.38;2.95;;;23.10;67.30;;;;;;4933490;29;20031;-90
2022/04/22 14:04:10;;;;;;;3.83;2.50;;;22.80;68.40;;;;;;4917227;29;20034;-90
2022/04/22 14:06:37;;;;;;;4.68;2.90;;;22.60;68.70;;;;;;4934312;29;20027;-90
2022/04/22 14:09:02;;;;;;;4.80;2.75;;;22.50;68.10;;;;;;4934220;29;20024;-90
2022/04/22 14:11:30;;;;;;;5.03;2.85;;;22.80;67.10;;;;;;4947949;28;20058;-90
2022/04/22 14:13:57;;;;;;;4.28;2.53;;;22.70;67.60;;;;;;4944605;28;20016;-90
2022/04/22 14:16:23;;;;;;;7.47;2.20;;;22.60;66.80;;;;;;4951978;29;20127;-89
2022/04/22 14:18:50;;;;;;;4.60;2.90;;;22.30;67.60;;;;;;4954093;29;20016;-90
2022/04/22 14:21:16;;;;;;;5.53;2.42;;;21.90;68.20;;;;;;4955444;29;20051;-90
2022/04/22 14:23:41;;;;;;;3.97;2.40;;;21.80;68.70;;;;;;4937913;29;20035;-91
2022/04/22 14:26:08;;;;;;;5.75;2.50;;;22.20;68.00;;;;;;4937731;29;20031;-90
2022/04/22 14:28:33;;;;;;;5.30;2.70;;;22.50;68.00;;;;;;4937203;29;20031;-91
2022/04/22 14:31:01;;;;;;;6.85;2.67;;;22.70;66.80;;;;;;4938438;29;20374;-90
2022/04/22 14:33:26;;;;;;;3.90;2.33;;;23.20;66.10;;;;;;4938873;29;20031;-90
2022/04/22 14:35:55;;;;;;;4.70;2.78;;;23.40;65.30;;;;;;4937687;29;20032;-92
2022/04/22 14:38:22;;;;;;;5.53;2.45;;;23.90;64.50;;;;;;4953281;28;20367;-90
2022/04/22 14:40:48;;;;;;;4.93;2.40;;;24.30;63.50;;;;;;4932858;29;20035;-90
2022/04/22 14:43:13;;;;;;;5.10;2.80;;;24.40;63.10;;;;;;4916952;29;20024;-90
2022/04/22 14:45:39;;;;;;;4.78;2.50;;;24.20;63.50;;;;;;4947400;28;20034;-90
2022/04/22 14:48:05;;;;;;;3.97;2.28;;;24.30;63.30;;;;;;4923401;29;20063;-91
2022/04/22 14:50:31;;;;;;;4.47;2.17;;;24.40;63.00;;;;;;4917719;29;20031;-91
2022/04/22 14:52:59;;;;;;;5.65;2.90;;;24.60;64.30;;;;;;4927892;29;20031;-91
2022/04/22 14:55:40;;;;;;;4.78;2.60;;;25.00;62.60;;;;;;5002171;23;20054;-92
2022/04/22 14:58:15;;;;;;;4.53;2.78;;;24.30;62.60;;;;;;4926533;29;20376;-93
2022/04/22 15:00:51;;;;;;;4.32;2.55;;;23.50;62.50;;;;;;4944336;29;20503;-92
2022/04/22 15:06:40;;;;;;;4.65;2.65;;;22.00;64.60;;;;;;4904480;29;20144;-92
2022/04/22 15:10:01;;;;;;;7.05;2.67;;;21.90;65.20;;;;;;4908309;29;20047;-92
2022/04/22 15:13:30;;;;;;;;;;;;;;;;;;;;;
2022/04/22 15:25:10;;;;;;;4.30;2.45;;;24.00;61.40;;;;;;4939546;29;20465;-92
2022/04/22 15:28:17;;;;;;;5.70;2.88;;;24.30;61.40;;;;;;4939681;29;20375;-93
2022/04/22 15:34:20;;;;;;;4.20;2.10;;;23.90;60.50;;;;;;4946824;29;20199;-92
2022/04/22 15:37:10;;;;;;;;;;;;;;;;;;;;;
2022/04/22 15:40:01;;;;;;;4.13;2.10;;;24.40;59.50;;;;;;4946189;29;20114;-93
2022/04/22 15:53:01;;;;;;;;;;;;;;;;;;;;;
2022/04/22 17:54:36;;;;;;;3.53;1.73;;;17.40;75.00;;;;;;4772004;23;20062;-92
2022/04/22 17:57:36;;;;;;;3.78;1.42;;;17.40;75.70;;;;;;4944581;29;20045;-93
2022/04/22 18:00:49;;;;;;;5.10;1.92;;;17.20;76.40;;;;;;4939318;29;20036;-92
2022/04/22 18:03:28;;;;;;;;;;;;;;;;;;;;;
2022/04/22 18:41:12;;;;;;;;;;;;;;;;;;;;;
2022/04/22 20:54:16;;;;;;;5.95;3.00;;;13.70;91.30;;;;;;5136386;23;21152;-90
2022/04/22 20:56:42;;;;;;;7.40;3.75;;;13.70;91.50;;;;;;4956926;28;20044;-89
2022/04/22 20:59:08;;;;;;;6.03;3.35;;;13.60;91.50;;;;;;4943058;29;20362;-88
2022/04/22 21:01:35;;;;;;;6.70;3.45;;;13.60;91.60;;;;;;4942078;29;20031;-88
2022/04/22 21:04:01;;;;;;;6.50;3.08;;;13.60;91.80;;;;;;4948934;29;20046;-88
2022/04/22 21:06:26;;;;;;;6.78;3.25;;;13.50;92.00;;;;;;4975461;29;20027;-89